sensor_id;sensor_type;location;lat;lon;timestamp;P1;durP1;ratioP1;P2;durP2;ratioP2
6640;SDS011;3356;49.360;8.266;2022-08-21T00:01:27;6.77;;;3.40;;
6640;SDS011;3356;49.360;8.266;2022-08-21T00:03:29;6.83;;;3.37;;
6640;SDS011;3356;49.360;8.266;2022-08-21T00:05:31;6.10;;;3.90;;
6640;SDS011;3356;49.360;8.266;2022-08-21T00:07:33;6.47;;;3.40;;
6640;SDS011;3356;49.360;8.266;2022-08-21T00:09:34;8.07;;;3.47;;
6640;SDS011;3356;49.360;8.266;2022-08-21T00:11:36;4.00;;;3.20;;
6640;SDS011;3356;49.360;8.266;2022-08-21T00:13:38;6.20;;;3.37;;
6640;SDS011;3356;49.360;8.266;2022-08-21T00:15:39;6.07;;;3.60;;
6640;SDS011;3356;49.360;8.266;2022-08-21T00:17:41;5.53;;;3.30;;
6640;SDS011;3356;49.360;8.266;2022-08-21T00:19:42;5.87;;;3.97;;
6640;SDS011;3356;49.360;8.266;2022-08-21T00:21:44;7.10;;;3.70;;
6640;SDS011;3356;49.360;8.266;2022-08-21T00:23:46;6.97;;;3.40;;
6640;SDS011;3356;49.360;8.266;2022-08-21T00:25:47;6.50;;;3.17;;
6640;SDS011;3356;49.360;8.266;2022-08-21T00:27:48;8.80;;;4.03;;
6640;SDS011;3356;49.360;8.266;2022-08-21T00:29:49;5.17;;;3.43;;
6640;SDS011;3356;49.360;8.266;2022-08-21T00:31:51;5.17;;;3.30;;
6640;SDS011;3356;49.360;8.266;2022-08-21T00:33:52;6.13;;;3.60;;
6640;SDS011;3356;49.360;8.266;2022-08-21T00:35:53;8.87;;;3.60;;
6640;SDS011;3356;49.360;8.266;2022-08-21T00:37:54;4.17;;;3.70;;
6640;SDS011;3356;49.360;8.266;2022-08-21T00:39:56;8.77;;;3.80;;
6640;SDS011;3356;49.360;8.266;2022-08-21T00:41:57;4.73;;;3.30;;
6640;SDS011;3356;49.360;8.266;2022-08-21T00:43:58;7.33;;;3.67;;
6640;SDS011;3356;49.360;8.266;2022-08-21T00:45:59;8.77;;;3.30;;
6640;SDS011;3356;49.360;8.266;2022-08-21T00:48:01;6.10;;;3.13;;
6640;SDS011;3356;49.360;8.266;2022-08-21T00:50:03;4.57;;;3.57;;
6640;SDS011;3356;49.360;8.266;2022-08-21T00:52:08;5.83;;;3.03;;
6640;SDS011;3356;49.360;8.266;2022-08-21T00:54:15;6.33;;;3.30;;
6640;SDS011;3356;49.360;8.266;2022-08-21T00:56:17;7.57;;;3.20;;
6640;SDS011;3356;49.360;8.266;2022-08-21T00:58:20;5.47;;;3.53;;
6640;SDS011;3356;49.360;8.266;2022-08-21T01:00:24;7.33;;;3.03;;
6640;SDS011;3356;49.360;8.266;2022-08-21T01:02:31;5.63;;;3.23;;
6640;SDS011;3356;49.360;8.266;2022-08-21T01:04:33;4.87;;;3.37;;
6640;SDS011;3356;49.360;8.266;2022-08-21T01:06:35;5.67;;;2.60;;
6640;SDS011;3356;49.360;8.266;2022-08-21T01:08:36;5.17;;;2.97;;
6640;SDS011;3356;49.360;8.266;2022-08-21T01:10:37;7.07;;;3.23;;
6640;SDS011;3356;49.360;8.266;2022-08-21T01:12:38;9.23;;;3.80;;
6640;SDS011;3356;49.360;8.266;2022-08-21T01:14:40;6.20;;;3.00;;
6640;SDS011;3356;49.360;8.266;2022-08-21T01:16:44;9.03;;;3.40;;
6640;SDS011;3356;49.360;8.266;2022-08-21T01:18:48;4.67;;;3.63;;
6640;SDS011;3356;49.360;8.266;2022-08-21T01:21:01;8.27;;;3.60;;
6640;SDS011;3356;49.360;8.266;2022-08-21T01:23:10;3.90;;;2.90;;
6640;SDS011;3356;49.360;8.266;2022-08-21T01:25:12;4.73;;;2.60;;
6640;SDS011;3356;49.360;8.266;2022-08-21T01:27:15;6.63;;;3.23;;
6640;SDS011;3356;49.360;8.266;2022-08-21T01:31:28;6.17;;;3.33;;
6640;SDS011;3356;49.360;8.266;2022-08-21T01:33:29;7.10;;;3.37;;
6640;SDS011;3356;49.360;8.266;2022-08-21T01:35:31;6.40;;;3.43;;
6640;SDS011;3356;49.360;8.266;2022-08-21T01:37:32;6.33;;;3.30;;
6640;SDS011;3356;49.360;8.266;2022-08-21T01:39:33;6.10;;;2.90;;
6640;SDS011;3356;49.360;8.266;2022-08-21T01:41:36;3.37;;;2.73;;
6640;SDS011;3356;49.360;8.266;2022-08-21T01:43:37;5.70;;;3.63;;
6640;SDS011;3356;49.360;8.266;2022-08-21T01:45:38;4.00;;;3.17;;
6640;SDS011;3356;49.360;8.266;2022-08-21T01:47:39;6.17;;;3.90;;
6640;SDS011;3356;49.360;8.266;2022-08-21T01:49:40;5.47;;;3.63;;
6640;SDS011;3356;49.360;8.266;2022-08-21T01:51:42;3.93;;;3.50;;
6640;SDS011;3356;49.360;8.266;2022-08-21T01:53:44;5.73;;;3.80;;
6640;SDS011;3356;49.360;8.266;2022-08-21T01:55:45;5.53;;;4.00;;
6640;SDS011;3356;49.360;8.266;2022-08-21T01:57:46;5.23;;;3.60;;
6640;SDS011;3356;49.360;8.266;2022-08-21T01:59:48;4.40;;;3.40;;
6640;SDS011;3356;49.360;8.266;2022-08-21T02:01:49;7.23;;;4.07;;
6640;SDS011;3356;49.360;8.266;2022-08-21T02:03:51;6.77;;;3.63;;
6640;SDS011;3356;49.360;8.266;2022-08-21T02:05:52;5.90;;;4.40;;
6640;SDS011;3356;49.360;8.266;2022-08-21T02:07:53;6.53;;;3.80;;
6640;SDS011;3356;49.360;8.266;2022-08-21T02:09:55;6.03;;;3.93;;
6640;SDS011;3356;49.360;8.266;2022-08-21T02:11:56;5.40;;;3.87;;
6640;SDS011;3356;49.360;8.266;2022-08-21T02:13:58;8.10;;;4.70;;
6640;SDS011;3356;49.360;8.266;2022-08-21T02:15:59;6.63;;;3.90;;
6640;SDS011;3356;49.360;8.266;2022-08-21T02:18:00;6.90;;;3.97;;
6640;SDS011;3356;49.360;8.266;2022-08-21T02:20:02;6.13;;;3.93;;
6640;SDS011;3356;49.360;8.266;2022-08-21T02:22:04;8.10;;;4.00;;
6640;SDS011;3356;49.360;8.266;2022-08-21T02:24:06;5.43;;;3.90;;
6640;SDS011;3356;49.360;8.266;2022-08-21T02:26:08;5.07;;;4.37;;
6640;SDS011;3356;49.360;8.266;2022-08-21T02:28:10;5.47;;;4.77;;
6640;SDS011;3356;49.360;8.266;2022-08-21T02:30:15;7.80;;;5.00;;
6640;SDS011;3356;49.360;8.266;2022-08-21T02:32:20;8.13;;;4.13;;
6640;SDS011;3356;49.360;8.266;2022-08-21T02:34:21;7.87;;;4.00;;
6640;SDS011;3356;49.360;8.266;2022-08-21T02:36:23;7.13;;;4.50;;
6640;SDS011;3356;49.360;8.266;2022-08-21T02:38:25;9.27;;;4.37;;
6640;SDS011;3356;49.360;8.266;2022-08-21T02:40:29;6.90;;;4.73;;
6640;SDS011;3356;49.360;8.266;2022-08-21T02:42:33;9.47;;;5.37;;
6640;SDS011;3356;49.360;8.266;2022-08-21T02:44:35;5.90;;;4.50;;
6640;SDS011;3356;49.360;8.266;2022-08-21T02:46:36;5.00;;;4.13;;
6640;SDS011;3356;49.360;8.266;2022-08-21T02:48:38;9.30;;;3.83;;
6640;SDS011;3356;49.360;8.266;2022-08-21T02:50:41;6.30;;;4.60;;
6640;SDS011;3356;49.360;8.266;2022-08-21T02:52:44;6.97;;;4.03;;
6640;SDS011;3356;49.360;8.266;2022-08-21T02:54:45;5.90;;;4.10;;
6640;SDS011;3356;49.360;8.266;2022-08-21T02:56:46;6.73;;;4.10;;
6640;SDS011;3356;49.360;8.266;2022-08-21T02:58:49;4.50;;;3.57;;
6640;SDS011;3356;49.360;8.266;2022-08-21T03:00:51;6.87;;;4.50;;
6640;SDS011;3356;49.360;8.266;2022-08-21T03:02:53;4.77;;;4.07;;
6640;SDS011;3356;49.360;8.266;2022-08-21T03:04:55;7.20;;;4.23;;
6640;SDS011;3356;49.360;8.266;2022-08-21T03:06:57;7.63;;;4.20;;
6640;SDS011;3356;49.360;8.266;2022-08-21T03:08:58;5.67;;;3.57;;
6640;SDS011;3356;49.360;8.266;2022-08-21T03:11:00;5.37;;;4.07;;
6640;SDS011;3356;49.360;8.266;2022-08-21T03:13:01;8.57;;;4.73;;
6640;SDS011;3356;49.360;8.266;2022-08-21T03:15:04;6.67;;;3.97;;
6640;SDS011;3356;49.360;8.266;2022-08-21T03:17:08;8.93;;;4.60;;
6640;SDS011;3356;49.360;8.266;2022-08-21T03:19:09;7.10;;;3.70;;
6640;SDS011;3356;49.360;8.266;2022-08-21T03:21:10;6.93;;;3.93;;
6640;SDS011;3356;49.360;8.266;2022-08-21T03:23:14;4.53;;;3.80;;
6640;SDS011;3356;49.360;8.266;2022-08-21T03:25:16;7.27;;;4.20;;
6640;SDS011;3356;49.360;8.266;2022-08-21T03:27:18;6.37;;;4.10;;
6640;SDS011;3356;49.360;8.266;2022-08-21T03:29:20;5.67;;;3.87;;
6640;SDS011;3356;49.360;8.266;2022-08-21T03:31:21;5.43;;;4.37;;
6640;SDS011;3356;49.360;8.266;2022-08-21T03:33:22;6.57;;;4.33;;
6640;SDS011;3356;49.360;8.266;2022-08-21T03:35:23;6.33;;;4.40;;
6640;SDS011;3356;49.360;8.266;2022-08-21T03:37:25;5.13;;;4.07;;
6640;SDS011;3356;49.360;8.266;2022-08-21T03:39:27;5.07;;;3.83;;
6640;SDS011;3356;49.360;8.266;2022-08-21T03:41:28;7.23;;;4.27;;
6640;SDS011;3356;49.360;8.266;2022-08-21T03:43:29;6.33;;;4.23;;
6640;SDS011;3356;49.360;8.266;2022-08-21T03:45:31;5.70;;;3.80;;
6640;SDS011;3356;49.360;8.266;2022-08-21T03:47:32;6.47;;;4.07;;
6640;SDS011;3356;49.360;8.266;2022-08-21T03:49:33;6.43;;;4.03;;
6640;SDS011;3356;49.360;8.266;2022-08-21T03:51:35;4.13;;;3.70;;
6640;SDS011;3356;49.360;8.266;2022-08-21T03:53:36;7.27;;;4.10;;
6640;SDS011;3356;49.360;8.266;2022-08-21T03:55:37;6.70;;;4.23;;
6640;SDS011;3356;49.360;8.266;2022-08-21T03:57:38;4.23;;;3.70;;
6640;SDS011;3356;49.360;8.266;2022-08-21T03:59:39;6.47;;;3.73;;
6640;SDS011;3356;49.360;8.266;2022-08-21T04:01:50;6.27;;;3.90;;
6640;SDS011;3356;49.360;8.266;2022-08-21T04:03:55;5.93;;;4.17;;
6640;SDS011;3356;49.360;8.266;2022-08-21T04:05:56;5.20;;;3.77;;
6640;SDS011;3356;49.360;8.266;2022-08-21T04:07:58;6.80;;;4.60;;
6640;SDS011;3356;49.360;8.266;2022-08-21T04:10:05;5.33;;;3.97;;
6640;SDS011;3356;49.360;8.266;2022-08-21T04:12:07;5.83;;;3.70;;
6640;SDS011;3356;49.360;8.266;2022-08-21T04:14:09;7.63;;;4.87;;
6640;SDS011;3356;49.360;8.266;2022-08-21T04:16:10;7.17;;;4.10;;
6640;SDS011;3356;49.360;8.266;2022-08-21T04:18:12;8.53;;;4.20;;
6640;SDS011;3356;49.360;8.266;2022-08-21T04:20:14;4.97;;;4.27;;
6640;SDS011;3356;49.360;8.266;2022-08-21T04:22:16;5.63;;;4.13;;
6640;SDS011;3356;49.360;8.266;2022-08-21T04:24:17;6.13;;;3.70;;
6640;SDS011;3356;49.360;8.266;2022-08-21T04:26:19;6.20;;;3.70;;
6640;SDS011;3356;49.360;8.266;2022-08-21T04:28:21;4.37;;;3.97;;
6640;SDS011;3356;49.360;8.266;2022-08-21T04:30:27;6.30;;;4.47;;
6640;SDS011;3356;49.360;8.266;2022-08-21T04:32:29;4.93;;;3.93;;
6640;SDS011;3356;49.360;8.266;2022-08-21T04:34:30;6.53;;;4.10;;
6640;SDS011;3356;49.360;8.266;2022-08-21T04:36:32;6.43;;;4.33;;
6640;SDS011;3356;49.360;8.266;2022-08-21T04:38:33;6.37;;;4.90;;
6640;SDS011;3356;49.360;8.266;2022-08-21T04:40:34;6.53;;;4.13;;
6640;SDS011;3356;49.360;8.266;2022-08-21T04:44:50;9.30;;;4.40;;
6640;SDS011;3356;49.360;8.266;2022-08-21T04:46:52;5.77;;;3.97;;
6640;SDS011;3356;49.360;8.266;2022-08-21T04:48:53;5.10;;;4.47;;
6640;SDS011;3356;49.360;8.266;2022-08-21T04:51:00;9.00;;;4.73;;
6640;SDS011;3356;49.360;8.266;2022-08-21T04:53:14;8.00;;;4.67;;
6640;SDS011;3356;49.360;8.266;2022-08-21T04:55:19;6.13;;;4.00;;
6640;SDS011;3356;49.360;8.266;2022-08-21T04:57:22;7.00;;;4.47;;
6640;SDS011;3356;49.360;8.266;2022-08-21T04:59:24;5.97;;;3.97;;
6640;SDS011;3356;49.360;8.266;2022-08-21T05:01:36;10.37;;;4.50;;
6640;SDS011;3356;49.360;8.266;2022-08-21T05:03:39;4.70;;;3.67;;
6640;SDS011;3356;49.360;8.266;2022-08-21T05:05:41;9.70;;;4.30;;
6640;SDS011;3356;49.360;8.266;2022-08-21T05:07:43;8.23;;;4.50;;
6640;SDS011;3356;49.360;8.266;2022-08-21T05:09:45;8.10;;;4.30;;
6640;SDS011;3356;49.360;8.266;2022-08-21T05:11:47;8.70;;;4.40;;
6640;SDS011;3356;49.360;8.266;2022-08-21T05:13:49;6.40;;;4.03;;
6640;SDS011;3356;49.360;8.266;2022-08-21T05:15:50;8.07;;;3.90;;
6640;SDS011;3356;49.360;8.266;2022-08-21T05:17:51;8.10;;;4.03;;
6640;SDS011;3356;49.360;8.266;2022-08-21T05:19:53;7.77;;;4.13;;
6640;SDS011;3356;49.360;8.266;2022-08-21T05:21:54;6.60;;;3.93;;
6640;SDS011;3356;49.360;8.266;2022-08-21T05:23:55;7.67;;;4.17;;
6640;SDS011;3356;49.360;8.266;2022-08-21T05:25:56;6.73;;;3.93;;
6640;SDS011;3356;49.360;8.266;2022-08-21T05:27:58;5.70;;;4.53;;
6640;SDS011;3356;49.360;8.266;2022-08-21T05:29:59;6.47;;;4.50;;
6640;SDS011;3356;49.360;8.266;2022-08-21T05:32:03;7.53;;;4.07;;
6640;SDS011;3356;49.360;8.266;2022-08-21T05:34:12;8.00;;;4.43;;
6640;SDS011;3356;49.360;8.266;2022-08-21T05:36:16;6.37;;;3.80;;
6640;SDS011;3356;49.360;8.266;2022-08-21T05:38:18;4.67;;;3.87;;
6640;SDS011;3356;49.360;8.266;2022-08-21T05:40:19;11.50;;;4.80;;
6640;SDS011;3356;49.360;8.266;2022-08-21T05:42:21;8.63;;;4.70;;
6640;SDS011;3356;49.360;8.266;2022-08-21T05:44:22;7.60;;;4.20;;
6640;SDS011;3356;49.360;8.266;2022-08-21T05:46:23;6.40;;;4.30;;
6640;SDS011;3356;49.360;8.266;2022-08-21T05:48:24;6.40;;;3.30;;
6640;SDS011;3356;49.360;8.266;2022-08-21T05:50:25;6.83;;;3.87;;
6640;SDS011;3356;49.360;8.266;2022-08-21T05:52:27;7.47;;;4.00;;
6640;SDS011;3356;49.360;8.266;2022-08-21T05:54:28;5.87;;;3.90;;
6640;SDS011;3356;49.360;8.266;2022-08-21T05:56:29;10.33;;;3.93;;
6640;SDS011;3356;49.360;8.266;2022-08-21T05:58:31;5.30;;;3.47;;
6640;SDS011;3356;49.360;8.266;2022-08-21T06:00:33;6.27;;;3.40;;
6640;SDS011;3356;49.360;8.266;2022-08-21T06:02:35;4.30;;;3.80;;
6640;SDS011;3356;49.360;8.266;2022-08-21T06:04:36;7.70;;;4.17;;
6640;SDS011;3356;49.360;8.266;2022-08-21T06:06:38;6.23;;;4.03;;
6640;SDS011;3356;49.360;8.266;2022-08-21T06:08:39;7.53;;;3.50;;
6640;SDS011;3356;49.360;8.266;2022-08-21T06:10:41;8.60;;;4.23;;
6640;SDS011;3356;49.360;8.266;2022-08-21T06:12:43;7.53;;;3.83;;
6640;SDS011;3356;49.360;8.266;2022-08-21T06:14:44;6.80;;;3.80;;
6640;SDS011;3356;49.360;8.266;2022-08-21T06:16:45;8.53;;;4.10;;
6640;SDS011;3356;49.360;8.266;2022-08-21T06:18:46;6.93;;;3.53;;
6640;SDS011;3356;49.360;8.266;2022-08-21T06:20:47;7.10;;;3.80;;
6640;SDS011;3356;49.360;8.266;2022-08-21T06:22:48;4.90;;;2.87;;
6640;SDS011;3356;49.360;8.266;2022-08-21T06:24:49;5.17;;;3.60;;
6640;SDS011;3356;49.360;8.266;2022-08-21T06:26:51;5.87;;;3.50;;
6640;SDS011;3356;49.360;8.266;2022-08-21T06:28:52;5.07;;;3.40;;
6640;SDS011;3356;49.360;8.266;2022-08-21T06:30:54;4.67;;;3.40;;
6640;SDS011;3356;49.360;8.266;2022-08-21T06:32:55;6.57;;;3.80;;
6640;SDS011;3356;49.360;8.266;2022-08-21T06:34:56;6.60;;;4.03;;
6640;SDS011;3356;49.360;8.266;2022-08-21T06:36:57;8.80;;;3.93;;
6640;SDS011;3356;49.360;8.266;2022-08-21T06:38:58;6.87;;;3.40;;
6640;SDS011;3356;49.360;8.266;2022-08-21T06:40:59;6.73;;;3.73;;
6640;SDS011;3356;49.360;8.266;2022-08-21T06:43:13;5.20;;;3.80;;
6640;SDS011;3356;49.360;8.266;2022-08-21T06:45:16;7.73;;;3.70;;
6640;SDS011;3356;49.360;8.266;2022-08-21T06:47:17;6.67;;;4.03;;
6640;SDS011;3356;49.360;8.266;2022-08-21T06:49:18;8.63;;;3.73;;
6640;SDS011;3356;49.360;8.266;2022-08-21T06:51:19;5.70;;;3.20;;
6640;SDS011;3356;49.360;8.266;2022-08-21T06:53:21;6.67;;;3.20;;
6640;SDS011;3356;49.360;8.266;2022-08-21T06:55:22;6.17;;;3.10;;
6640;SDS011;3356;49.360;8.266;2022-08-21T06:57:23;6.03;;;3.33;;
6640;SDS011;3356;49.360;8.266;2022-08-21T06:59:26;7.00;;;3.80;;
6640;SDS011;3356;49.360;8.266;2022-08-21T07:01:27;5.37;;;3.90;;
6640;SDS011;3356;49.360;8.266;2022-08-21T07:03:30;5.40;;;4.00;;
6640;SDS011;3356;49.360;8.266;2022-08-21T07:05:36;9.37;;;4.17;;
6640;SDS011;3356;49.360;8.266;2022-08-21T07:07:37;7.77;;;4.20;;
6640;SDS011;3356;49.360;8.266;2022-08-21T07:09:38;7.27;;;3.70;;
6640;SDS011;3356;49.360;8.266;2022-08-21T07:11:40;7.63;;;4.20;;
6640;SDS011;3356;49.360;8.266;2022-08-21T07:13:41;7.27;;;3.90;;
6640;SDS011;3356;49.360;8.266;2022-08-21T07:15:43;5.90;;;3.90;;
6640;SDS011;3356;49.360;8.266;2022-08-21T07:17:45;4.70;;;4.03;;
6640;SDS011;3356;49.360;8.266;2022-08-21T07:19:46;7.63;;;3.90;;
6640;SDS011;3356;49.360;8.266;2022-08-21T07:21:47;7.70;;;3.70;;
6640;SDS011;3356;49.360;8.266;2022-08-21T07:23:49;6.20;;;3.70;;
6640;SDS011;3356;49.360;8.266;2022-08-21T07:25:51;5.93;;;3.87;;
6640;SDS011;3356;49.360;8.266;2022-08-21T07:27:53;6.90;;;4.10;;
6640;SDS011;3356;49.360;8.266;2022-08-21T07:29:54;7.87;;;3.77;;
6640;SDS011;3356;49.360;8.266;2022-08-21T07:31:55;9.70;;;4.13;;
6640;SDS011;3356;49.360;8.266;2022-08-21T07:33:57;9.17;;;3.37;;
6640;SDS011;3356;49.360;8.266;2022-08-21T07:35:58;9.37;;;3.50;;
6640;SDS011;3356;49.360;8.266;2022-08-21T07:38:00;7.53;;;3.67;;
6640;SDS011;3356;49.360;8.266;2022-08-21T07:40:01;5.80;;;3.53;;
6640;SDS011;3356;49.360;8.266;2022-08-21T07:42:03;8.97;;;4.17;;
6640;SDS011;3356;49.360;8.266;2022-08-21T07:44:04;4.37;;;3.17;;
6640;SDS011;3356;49.360;8.266;2022-08-21T07:46:05;9.43;;;3.60;;
6640;SDS011;3356;49.360;8.266;2022-08-21T07:48:06;9.13;;;3.47;;
6640;SDS011;3356;49.360;8.266;2022-08-21T07:50:08;8.30;;;3.47;;
6640;SDS011;3356;49.360;8.266;2022-08-21T07:52:11;3.70;;;3.07;;
6640;SDS011;3356;49.360;8.266;2022-08-21T07:54:12;6.63;;;2.83;;
6640;SDS011;3356;49.360;8.266;2022-08-21T07:56:13;11.60;;;2.97;;
6640;SDS011;3356;49.360;8.266;2022-08-21T07:58:14;6.20;;;2.97;;
6640;SDS011;3356;49.360;8.266;2022-08-21T08:00:17;5.50;;;3.30;;
6640;SDS011;3356;49.360;8.266;2022-08-21T08:02:25;6.65;;;3.03;;
6640;SDS011;3356;49.360;8.266;2022-08-21T08:04:28;5.65;;;2.90;;
6640;SDS011;3356;49.360;8.266;2022-08-21T08:06:29;6.45;;;3.15;;
6640;SDS011;3356;49.360;8.266;2022-08-21T08:08:31;5.65;;;2.97;;
6640;SDS011;3356;49.360;8.266;2022-08-21T08:10:32;5.00;;;2.83;;
6640;SDS011;3356;49.360;8.266;2022-08-21T08:12:34;29.80;;;4.53;;
6640;SDS011;3356;49.360;8.266;2022-08-21T08:14:36;5.28;;;3.13;;
6640;SDS011;3356;49.360;8.266;2022-08-21T08:16:37;5.15;;;2.97;;
6640;SDS011;3356;49.360;8.266;2022-08-21T08:18:38;6.95;;;3.22;;
6640;SDS011;3356;49.360;8.266;2022-08-21T08:20:39;6.53;;;3.40;;
6640;SDS011;3356;49.360;8.266;2022-08-21T08:22:41;5.45;;;2.67;;
6640;SDS011;3356;49.360;8.266;2022-08-21T08:24:43;8.25;;;3.03;;
6640;SDS011;3356;49.360;8.266;2022-08-21T08:26:44;10.77;;;3.50;;
6640;SDS011;3356;49.360;8.266;2022-08-21T08:28:45;3.58;;;2.47;;
6640;SDS011;3356;49.360;8.266;2022-08-21T08:30:48;5.05;;;2.95;;
6640;SDS011;3356;49.360;8.266;2022-08-21T08:32:50;4.05;;;2.97;;
6640;SDS011;3356;49.360;8.266;2022-08-21T08:34:51;4.50;;;2.92;;
6640;SDS011;3356;49.360;8.266;2022-08-21T08:36:52;6.85;;;2.78;;
6640;SDS011;3356;49.360;8.266;2022-08-21T08:38:54;4.43;;;3.00;;
6640;SDS011;3356;49.360;8.266;2022-08-21T08:40:58;6.57;;;3.03;;
6640;SDS011;3356;49.360;8.266;2022-08-21T08:43:19;6.75;;;3.10;;
6640;SDS011;3356;49.360;8.266;2022-08-21T08:45:20;4.72;;;2.80;;
6640;SDS011;3356;49.360;8.266;2022-08-21T08:47:26;7.32;;;3.30;;
6640;SDS011;3356;49.360;8.266;2022-08-21T08:49:37;6.28;;;3.10;;
6640;SDS011;3356;49.360;8.266;2022-08-21T08:54:39;5.05;;;2.80;;
6640;SDS011;3356;49.360;8.266;2022-08-21T08:56:45;10.32;;;3.60;;
6640;SDS011;3356;49.360;8.266;2022-08-21T08:58:46;4.05;;;2.95;;
6640;SDS011;3356;49.360;8.266;2022-08-21T09:00:51;5.40;;;3.10;;
6640;SDS011;3356;49.360;8.266;2022-08-21T09:02:54;6.28;;;3.22;;
6640;SDS011;3356;49.360;8.266;2022-08-21T09:04:57;4.28;;;2.78;;
6640;SDS011;3356;49.360;8.266;2022-08-21T09:11:56;5.53;;;3.50;;
6640;SDS011;3356;49.360;8.266;2022-08-21T09:16:55;6.47;;;3.40;;
6640;SDS011;3356;49.360;8.266;2022-08-21T09:19:03;6.10;;;3.22;;
6640;SDS011;3356;49.360;8.266;2022-08-21T09:28:07;6.00;;;3.03;;
6640;SDS011;3356;49.360;8.266;2022-08-21T09:30:12;7.00;;;3.38;;
6640;SDS011;3356;49.360;8.266;2022-08-21T09:32:18;6.28;;;3.03;;
6640;SDS011;3356;49.360;8.266;2022-08-21T09:34:27;4.63;;;2.75;;
6640;SDS011;3356;49.360;8.266;2022-08-21T09:36:38;6.40;;;2.92;;
6640;SDS011;3356;49.360;8.266;2022-08-21T09:38:52;4.25;;;2.95;;
6640;SDS011;3356;49.360;8.266;2022-08-21T09:40:57;7.82;;;3.55;;
6640;SDS011;3356;49.360;8.266;2022-08-21T09:43:14;7.93;;;2.63;;
6640;SDS011;3356;49.360;8.266;2022-08-21T09:45:21;6.68;;;2.65;;
6640;SDS011;3356;49.360;8.266;2022-08-21T09:47:25;6.88;;;2.63;;
6640;SDS011;3356;49.360;8.266;2022-08-21T09:49:30;7.93;;;2.90;;
6640;SDS011;3356;49.360;8.266;2022-08-21T09:51:34;11.90;;;2.83;;
6640;SDS011;3356;49.360;8.266;2022-08-21T09:53:38;9.07;;;3.08;;
6640;SDS011;3356;49.360;8.266;2022-08-21T09:55:48;5.50;;;2.50;;
6640;SDS011;3356;49.360;8.266;2022-08-21T09:58:10;5.15;;;2.30;;
6640;SDS011;3356;49.360;8.266;2022-08-21T10:04:34;7.47;;;2.50;;
6640;SDS011;3356;49.360;8.266;2022-08-21T10:06:36;5.57;;;2.88;;
6640;SDS011;3356;49.360;8.266;2022-08-21T10:08:38;6.40;;;3.20;;
6640;SDS011;3356;49.360;8.266;2022-08-21T10:10:40;5.32;;;2.42;;
6640;SDS011;3356;49.360;8.266;2022-08-21T10:17:23;6.25;;;3.22;;
6640;SDS011;3356;49.360;8.266;2022-08-21T10:30:56;4.05;;;2.85;;
6640;SDS011;3356;49.360;8.266;2022-08-21T10:35:24;5.85;;;2.70;;
6640;SDS011;3356;49.360;8.266;2022-08-21T10:37:57;5.65;;;2.72;;
6640;SDS011;3356;49.360;8.266;2022-08-21T10:45:46;6.22;;;2.92;;
6640;SDS011;3356;49.360;8.266;2022-08-21T10:47:48;4.25;;;2.50;;
6640;SDS011;3356;49.360;8.266;2022-08-21T10:50:12;4.97;;;2.75;;
6640;SDS011;3356;49.360;8.266;2022-08-21T10:54:47;4.57;;;3.05;;
6640;SDS011;3356;49.360;8.266;2022-08-21T10:57:11;4.93;;;2.75;;
6640;SDS011;3356;49.360;8.266;2022-08-21T11:01:27;8.07;;;2.92;;
6640;SDS011;3356;49.360;8.266;2022-08-21T11:03:45;5.13;;;2.58;;
6640;SDS011;3356;49.360;8.266;2022-08-21T11:05:52;6.47;;;2.65;;
6640;SDS011;3356;49.360;8.266;2022-08-21T11:10:16;6.88;;;2.58;;
6640;SDS011;3356;49.360;8.266;2022-08-21T11:12:27;5.15;;;2.65;;
6640;SDS011;3356;49.360;8.266;2022-08-21T11:14:39;7.00;;;3.13;;
6640;SDS011;3356;49.360;8.266;2022-08-21T11:16:53;5.45;;;2.35;;
6640;SDS011;3356;49.360;8.266;2022-08-21T11:19:06;5.28;;;2.67;;
6640;SDS011;3356;49.360;8.266;2022-08-21T11:23:42;5.20;;;2.53;;
6640;SDS011;3356;49.360;8.266;2022-08-21T11:25:49;6.05;;;2.65;;
6640;SDS011;3356;49.360;8.266;2022-08-21T11:28:01;5.05;;;2.28;;
6640;SDS011;3356;49.360;8.266;2022-08-21T11:30:22;6.30;;;3.15;;
6640;SDS011;3356;49.360;8.266;2022-08-21T11:35:22;6.80;;;2.55;;
6640;SDS011;3356;49.360;8.266;2022-08-21T11:37:57;4.47;;;2.72;;
6640;SDS011;3356;49.360;8.266;2022-08-21T11:40:31;3.53;;;2.40;;
6640;SDS011;3356;49.360;8.266;2022-08-21T11:45:19;5.35;;;2.80;;
6640;SDS011;3356;49.360;8.266;2022-08-21T11:47:32;5.35;;;2.72;;
6640;SDS011;3356;49.360;8.266;2022-08-21T11:52:40;5.10;;;2.88;;
6640;SDS011;3356;49.360;8.266;2022-08-21T11:55:03;6.72;;;2.97;;
6640;SDS011;3356;49.360;8.266;2022-08-21T11:59:39;6.63;;;2.90;;
6640;SDS011;3356;49.360;8.266;2022-08-21T12:01:45;6.30;;;2.88;;
6640;SDS011;3356;49.360;8.266;2022-08-21T12:03:53;5.30;;;2.50;;
6640;SDS011;3356;49.360;8.266;2022-08-21T12:05:59;7.70;;;3.15;;
6640;SDS011;3356;49.360;8.266;2022-08-21T12:08:11;6.28;;;2.90;;
6640;SDS011;3356;49.360;8.266;2022-08-21T12:10:18;4.30;;;2.42;;
6640;SDS011;3356;49.360;8.266;2022-08-21T12:12:30;5.18;;;2.88;;
6640;SDS011;3356;49.360;8.266;2022-08-21T12:14:38;4.85;;;2.88;;
6640;SDS011;3356;49.360;8.266;2022-08-21T12:16:45;4.72;;;2.78;;
6640;SDS011;3356;49.360;8.266;2022-08-21T12:18:48;5.68;;;2.38;;
6640;SDS011;3356;49.360;8.266;2022-08-21T12:23:28;5.47;;;2.42;;
6640;SDS011;3356;49.360;8.266;2022-08-21T12:25:40;6.35;;;2.75;;
6640;SDS011;3356;49.360;8.266;2022-08-21T12:28:08;7.45;;;3.15;;
6640;SDS011;3356;49.360;8.266;2022-08-21T12:30:23;4.10;;;2.80;;
6640;SDS011;3356;49.360;8.266;2022-08-21T12:32:28;8.57;;;3.30;;
6640;SDS011;3356;49.360;8.266;2022-08-21T12:34:46;4.57;;;2.65;;
6640;SDS011;3356;49.360;8.266;2022-08-21T12:36:57;4.38;;;2.80;;
6640;SDS011;3356;49.360;8.266;2022-08-21T12:39:17;3.70;;;2.85;;
6640;SDS011;3356;49.360;8.266;2022-08-21T12:43:31;4.55;;;2.97;;
6640;SDS011;3356;49.360;8.266;2022-08-21T12:45:47;6.10;;;2.60;;
6640;SDS011;3356;49.360;8.266;2022-08-21T12:47:55;5.35;;;2.65;;
6640;SDS011;3356;49.360;8.266;2022-08-21T12:50:05;6.15;;;3.08;;
6640;SDS011;3356;49.360;8.266;2022-08-21T12:52:16;4.35;;;2.70;;
6640;SDS011;3356;49.360;8.266;2022-08-21T12:54:30;5.55;;;2.92;;
6640;SDS011;3356;49.360;8.266;2022-08-21T12:56:37;4.78;;;2.33;;
6640;SDS011;3356;49.360;8.266;2022-08-21T12:58:40;10.95;;;3.38;;
6640;SDS011;3356;49.360;8.266;2022-08-21T13:00:49;6.13;;;2.95;;
6640;SDS011;3356;49.360;8.266;2022-08-21T13:02:52;7.10;;;4.28;;
6640;SDS011;3356;49.360;8.266;2022-08-21T13:04:55;5.68;;;2.60;;
6640;SDS011;3356;49.360;8.266;2022-08-21T13:06:56;5.63;;;3.03;;
6640;SDS011;3356;49.360;8.266;2022-08-21T13:09:04;5.88;;;3.22;;
6640;SDS011;3356;49.360;8.266;2022-08-21T13:11:06;7.95;;;3.40;;
6640;SDS011;3356;49.360;8.266;2022-08-21T13:13:19;9.05;;;3.10;;
6640;SDS011;3356;49.360;8.266;2022-08-21T13:15:26;4.80;;;2.88;;
6640;SDS011;3356;49.360;8.266;2022-08-21T13:17:34;4.78;;;2.75;;
6640;SDS011;3356;49.360;8.266;2022-08-21T13:19:38;5.72;;;3.22;;
6640;SDS011;3356;49.360;8.266;2022-08-21T13:21:41;9.50;;;3.38;;
6640;SDS011;3356;49.360;8.266;2022-08-21T13:23:44;4.95;;;2.75;;
6640;SDS011;3356;49.360;8.266;2022-08-21T13:25:45;3.78;;;2.75;;
6640;SDS011;3356;49.360;8.266;2022-08-21T13:30:09;6.78;;;2.60;;
6640;SDS011;3356;49.360;8.266;2022-08-21T13:32:22;4.88;;;3.38;;
6640;SDS011;3356;49.360;8.266;2022-08-21T13:34:28;7.93;;;2.83;;
6640;SDS011;3356;49.360;8.266;2022-08-21T13:36:34;4.82;;;2.78;;
6640;SDS011;3356;49.360;8.266;2022-08-21T13:38:38;5.25;;;3.20;;
6640;SDS011;3356;49.360;8.266;2022-08-21T13:40:44;7.68;;;2.65;;
6640;SDS011;3356;49.360;8.266;2022-08-21T13:42:50;6.50;;;2.90;;
6640;SDS011;3356;49.360;8.266;2022-08-21T13:44:52;7.55;;;3.10;;
6640;SDS011;3356;49.360;8.266;2022-08-21T13:46:54;8.18;;;2.95;;
6640;SDS011;3356;49.360;8.266;2022-08-21T13:48:56;4.93;;;3.22;;
6640;SDS011;3356;49.360;8.266;2022-08-21T13:50:58;5.18;;;2.75;;
6640;SDS011;3356;49.360;8.266;2022-08-21T13:53:03;3.70;;;2.72;;
6640;SDS011;3356;49.360;8.266;2022-08-21T13:55:11;4.90;;;2.70;;
6640;SDS011;3356;49.360;8.266;2022-08-21T13:57:17;9.38;;;2.88;;
6640;SDS011;3356;49.360;8.266;2022-08-21T13:59:28;5.30;;;2.70;;
6640;SDS011;3356;49.360;8.266;2022-08-21T14:01:33;5.60;;;2.92;;
6640;SDS011;3356;49.360;8.266;2022-08-21T14:03:43;6.57;;;3.10;;
6640;SDS011;3356;49.360;8.266;2022-08-21T14:05:49;40.92;;;4.40;;
6640;SDS011;3356;49.360;8.266;2022-08-21T14:07:50;5.35;;;3.00;;
6640;SDS011;3356;49.360;8.266;2022-08-21T14:10:15;5.20;;;3.25;;